createdAt,value
2023-05-22T00:01:06.795Z,78.60
2023-05-22T00:03:34.094Z,78.50
2023-05-22T00:06:01.085Z,79.10
2023-05-22T00:08:29.915Z,78.10
2023-05-22T00:10:57.125Z,77.80
2023-05-22T00:13:24.042Z,77.60
2023-05-22T00:15:51.017Z,77.40
2023-05-22T00:18:18.023Z,77.30
2023-05-22T00:20:46.598Z,77.30
2023-05-22T00:23:15.604Z,77.20
2023-05-22T00:25:42.977Z,77.00
2023-05-22T00:28:11.053Z,77.80
2023-05-22T00:30:38.515Z,77.00
2023-05-22T00:33:05.732Z,77.10
2023-05-22T00:35:33.186Z,77.20
2023-05-22T00:38:03.437Z,77.40
2023-05-22T00:40:30.529Z,77.30
2023-05-22T00:42:57.467Z,77.40
2023-05-22T00:45:24.540Z,77.40
2023-05-22T00:47:51.674Z,77.40
2023-05-22T00:50:20.294Z,77.30
2023-05-22T00:52:47.700Z,77.40
2023-05-22T00:55:15.840Z,77.40
2023-05-22T00:57:43.599Z,77.40
2023-05-22T01:00:11.299Z,77.40
2023-05-22T01:02:39.839Z,77.50
2023-05-22T01:05:07.936Z,77.40
2023-05-22T01:07:37.821Z,77.20
2023-05-22T01:10:06.311Z,77.10
2023-05-22T01:12:56.383Z,77.10
2023-05-22T01:15:42.192Z,77.20
2023-05-22T01:18:19.875Z,77.10
2023-05-22T01:20:58.264Z,77.10
2023-05-22T01:23:54.247Z,77.00
2023-05-22T01:26:36.619Z,77.40
2023-05-22T01:29:23.105Z,77.40
2023-05-22T01:31:52.530Z,77.50
2023-05-22T01:34:21.229Z,77.70
2023-05-22T01:36:51.221Z,77.90
2023-05-22T01:39:18.965Z,77.60
2023-05-22T01:41:46.327Z,77.60
2023-05-22T01:44:13.288Z,77.20
2023-05-22T01:46:41.101Z,77.10
2023-05-22T01:49:09.202Z,77.10
2023-05-22T01:52:12.372Z,76.80
2023-05-22T01:54:43.476Z,76.80
2023-05-22T01:57:22.316Z,76.60
2023-05-22T01:59:57.969Z,76.40
2023-05-22T02:02:26.391Z,76.20
2023-05-22T02:04:58.786Z,76.20
2023-05-22T02:07:27.638Z,76.40
2023-05-22T02:09:57.068Z,76.60
2023-05-22T02:12:24.841Z,76.70
2023-05-22T02:14:52.656Z,76.90
2023-05-22T02:17:22.180Z,77.10
2023-05-22T02:19:49.593Z,77.20
2023-05-22T02:22:16.633Z,77.40
2023-05-22T02:24:47.347Z,77.50
2023-05-22T02:27:16.938Z,77.50
2023-05-22T02:29:43.905Z,77.50
2023-05-22T02:32:11.282Z,77.70
2023-05-22T02:34:38.256Z,77.80
2023-05-22T02:37:06.115Z,77.90
2023-05-22T02:39:33.133Z,78.00
2023-05-22T02:42:00.835Z,78.10
2023-05-22T02:44:28.367Z,78.20
2023-05-22T02:46:55.549Z,78.30
2023-05-22T02:49:22.620Z,78.40
2023-05-22T02:51:49.594Z,78.50
2023-05-22T02:54:16.947Z,78.50
2023-05-22T02:56:44.258Z,78.50
2023-05-22T02:59:11.336Z,78.50
2023-05-22T03:01:39.004Z,78.60
2023-05-22T03:04:06.825Z,78.60
2023-05-22T03:06:35.270Z,78.70
2023-05-22T03:09:04.163Z,78.70
2023-05-22T03:11:32.515Z,78.80
2023-05-22T03:13:59.443Z,78.90
2023-05-22T03:16:27.087Z,79.10
2023-05-22T03:19:14.683Z,79.20
2023-05-22T03:21:44.035Z,79.20
2023-05-22T03:24:12.610Z,79.20
2023-05-22T03:26:39.779Z,79.50
2023-05-22T03:29:10.066Z,79.50
2023-05-22T03:31:40.471Z,79.70
2023-05-22T03:34:11.133Z,79.90
2023-05-22T03:36:38.867Z,80.30
2023-05-22T03:39:06.431Z,80.40
2023-05-22T03:41:38.615Z,80.60
2023-05-22T03:44:06.276Z,80.70
2023-05-22T03:46:34.235Z,80.70
2023-05-22T03:49:01.283Z,81.00
2023-05-22T03:51:31.798Z,81.20
2023-05-22T03:53:59.124Z,81.40
2023-05-22T03:56:26.874Z,81.60
2023-05-22T03:58:54.169Z,81.50
2023-05-22T04:01:22.326Z,81.70
2023-05-22T04:03:49.380Z,81.50
2023-05-22T04:06:22.310Z,81.60
2023-05-22T04:08:49.476Z,81.60
2023-05-22T04:11:19.789Z,81.50
2023-05-22T04:13:51.605Z,81.50
2023-05-22T04:16:20.322Z,81.50
2023-05-22T04:18:48.850Z,81.60
2023-05-22T04:21:18.011Z,81.60
2023-05-22T04:23:46.684Z,81.70
2023-05-22T04:26:13.905Z,81.60
2023-05-22T04:28:41.781Z,81.50
2023-05-22T04:31:08.804Z,81.40
2023-05-22T04:33:36.517Z,81.30
2023-05-22T04:36:04.974Z,81.40
2023-05-22T04:38:36.776Z,81.40
2023-05-22T04:41:04.046Z,81.40
2023-05-22T04:43:32.414Z,81.50
2023-05-22T04:45:59.418Z,81.30
2023-05-22T04:48:26.570Z,81.20
2023-05-22T04:50:54.316Z,81.10
2023-05-22T04:53:21.507Z,81.10
2023-05-22T04:55:49.243Z,81.20
2023-05-22T04:58:16.305Z,81.20
2023-05-22T05:00:43.539Z,81.30
2023-05-22T05:03:11.943Z,81.30
2023-05-22T05:05:39.415Z,81.20
2023-05-22T05:08:06.565Z,81.10
2023-05-22T05:10:33.521Z,81.10
2023-05-22T05:13:00.579Z,80.90
2023-05-22T05:15:29.412Z,80.80
2023-05-22T05:17:56.432Z,80.70
2023-05-22T05:20:24.429Z,80.70
2023-05-22T05:22:51.505Z,80.70
2023-05-22T05:25:18.739Z,80.70
2023-05-22T05:27:45.760Z,81.40
2023-05-22T05:30:13.596Z,80.60
2023-05-22T05:33:13.127Z,80.40
2023-05-22T05:35:58.566Z,80.20
2023-05-22T05:38:26.281Z,80.10
2023-05-22T05:40:55.155Z,80.00
2023-05-22T05:43:23.484Z,80.00
2023-05-22T05:45:51.920Z,79.90
2023-05-22T05:48:18.891Z,79.90
2023-05-22T05:50:49.560Z,79.90
2023-05-22T05:53:16.829Z,79.90
2023-05-22T05:55:49.284Z,79.80
2023-05-22T05:58:17.799Z,79.60
2023-05-22T06:01:06.176Z,79.50
2023-05-22T06:03:33.998Z,79.60
2023-05-22T06:06:13.155Z,79.60
2023-05-22T06:09:10.133Z,79.70
2023-05-22T06:11:57.553Z,79.50
2023-05-22T06:14:25.116Z,78.90
2023-05-22T06:16:54.627Z,78.40
2023-05-22T06:19:25.475Z,78.00
2023-05-22T06:21:52.586Z,77.80
2023-05-22T06:24:21.185Z,77.70
2023-05-22T06:26:48.165Z,77.20
2023-05-22T06:29:15.221Z,76.40
2023-05-22T06:31:42.223Z,75.60
2023-05-22T06:34:09.745Z,74.70
2023-05-22T06:36:37.550Z,73.40
2023-05-22T06:39:06.003Z,72.70
2023-05-22T06:41:51.365Z,72.00
2023-05-22T06:44:18.787Z,71.10
2023-05-22T06:46:48.389Z,70.70
2023-05-22T06:49:22.388Z,70.40
2023-05-22T06:51:52.564Z,70.10
2023-05-22T06:54:21.342Z,69.40
2023-05-22T06:56:51.492Z,68.90
2023-05-22T06:59:18.728Z,68.80
2023-05-22T07:02:04.423Z,68.20
2023-05-22T07:04:42.729Z,67.60
2023-05-22T07:07:13.885Z,67.00
2023-05-22T07:09:40.882Z,66.30
2023-05-22T07:12:08.623Z,65.70
2023-05-22T07:14:35.930Z,64.50
2023-05-22T07:17:03.687Z,63.70
2023-05-22T07:19:36.190Z,63.30
2023-05-22T07:22:04.827Z,63.60
2023-05-22T07:24:34.172Z,63.60
2023-05-22T07:27:02.026Z,63.20
2023-05-22T07:29:29.093Z,62.40
2023-05-22T07:31:57.717Z,61.50
2023-05-22T07:34:31.995Z,60.80
2023-05-22T07:37:09.265Z,60.10
2023-05-22T07:39:36.411Z,59.30
2023-05-22T07:42:05.915Z,58.30
2023-05-22T07:44:37.771Z,57.30
2023-05-22T07:47:05.689Z,56.80
2023-05-22T07:49:34.119Z,56.10
2023-05-22T07:52:04.712Z,55.10
2023-05-22T07:54:32.004Z,54.40
2023-05-22T07:57:03.235Z,53.60
2023-05-22T07:59:35.854Z,52.80
2023-05-22T08:02:02.909Z,52.10
2023-05-22T08:04:30.228Z,51.70
2023-05-22T08:06:57.284Z,50.70
2023-05-22T08:09:24.369Z,50.20
2023-05-22T08:11:51.395Z,50.10
2023-05-22T08:14:19.538Z,49.40
2023-05-22T08:16:46.570Z,48.70
2023-05-22T08:19:14.840Z,47.90
2023-05-22T08:21:42.081Z,47.60
2023-05-22T08:24:09.348Z,47.40
2023-05-22T08:26:40.134Z,47.10
2023-05-22T08:29:22.228Z,46.50
2023-05-22T08:32:00.629Z,45.60
2023-05-22T08:34:32.570Z,45.30
2023-05-22T08:37:02.131Z,45.00
2023-05-22T08:39:31.929Z,44.70
2023-05-22T08:41:59.429Z,44.20
2023-05-22T08:44:26.405Z,44.20
2023-05-22T08:46:56.693Z,43.30
2023-05-22T08:49:24.629Z,42.80
2023-05-22T08:51:58.221Z,42.50
2023-05-22T08:54:28.511Z,42.30
2023-05-22T08:56:57.530Z,42.20
2023-05-22T08:59:24.932Z,41.80
2023-05-22T09:01:53.556Z,41.20
2023-05-22T09:04:23.928Z,40.40
2023-05-22T09:06:53.141Z,40.00
2023-05-22T09:09:20.099Z,39.90
2023-05-22T09:11:47.075Z,39.80
2023-05-22T09:14:16.001Z,38.70
2023-05-22T09:16:48.126Z,37.90
2023-05-22T09:19:16.094Z,37.80
2023-05-22T09:21:44.632Z,37.50
2023-05-22T09:24:11.859Z,37.40
2023-05-22T09:26:39.848Z,35.90
2023-05-22T09:29:10.017Z,35.20
2023-05-22T09:31:44.433Z,35.20
2023-05-22T09:34:17.737Z,35.80
2023-05-22T09:36:45.036Z,35.40
2023-05-22T09:39:12.165Z,33.30
2023-05-22T09:41:40.060Z,34.10
2023-05-22T09:44:16.612Z,33.80
2023-05-22T09:46:48.051Z,33.40
2023-05-22T09:49:17.456Z,33.10
2023-05-22T09:51:48.403Z,32.50
2023-05-22T09:54:17.757Z,31.50
2023-05-22T09:56:49.290Z,31.20
2023-05-22T09:59:22.485Z,31.10
2023-05-22T10:01:50.488Z,30.80
2023-05-22T10:04:21.998Z,30.60
2023-05-22T10:06:54.393Z,30.10
2023-05-22T10:09:30.925Z,29.50
2023-05-22T10:12:00.388Z,30.10
2023-05-22T10:14:28.820Z,30.20
2023-05-22T10:17:02.041Z,29.90
2023-05-22T10:19:31.250Z,29.30
2023-05-22T10:22:00.481Z,28.80
2023-05-22T10:24:28.822Z,28.60
2023-05-22T10:26:56.064Z,28.00
2023-05-22T10:29:50.824Z,27.80
2023-05-22T10:32:35.840Z,27.70
2023-05-22T10:35:14.300Z,26.60
2023-05-22T10:37:53.644Z,27.30
2023-05-22T10:40:33.391Z,27.20
2023-05-22T10:43:01.884Z,26.10
2023-05-22T10:45:29.959Z,26.40
2023-05-22T10:48:07.899Z,26.10
2023-05-22T10:50:36.284Z,25.60
2023-05-22T10:53:23.467Z,25.40
2023-05-22T10:55:55.315Z,25.10
2023-05-22T10:58:37.298Z,25.20
2023-05-22T11:01:18.313Z,24.80
2023-05-22T11:04:07.163Z,24.30
2023-05-22T11:06:54.583Z,24.30
2023-05-22T11:09:28.631Z,24.20
2023-05-22T11:12:24.684Z,23.50
2023-05-22T11:15:08.125Z,22.80
2023-05-22T11:17:51.482Z,22.60
2023-05-22T11:20:21.117Z,22.40
2023-05-22T11:23:10.175Z,23.10
2023-05-22T11:25:38.531Z,24.20
2023-05-22T11:28:06.393Z,25.80
2023-05-22T11:30:34.870Z,26.60
2023-05-22T11:33:02.499Z,27.40
2023-05-22T11:35:29.963Z,28.20
2023-05-22T11:37:57.211Z,29.00
2023-05-22T11:40:27.144Z,29.70
2023-05-22T11:42:54.457Z,30.80
2023-05-22T11:45:22.148Z,31.90
2023-05-22T11:47:49.963Z,32.10
2023-05-22T11:50:29.352Z,32.80
2023-05-22T11:53:04.497Z,33.40
2023-05-22T11:55:33.809Z,34.00
2023-05-22T11:58:02.741Z,34.50
2023-05-22T12:00:31.988Z,35.30
2023-05-22T12:02:59.483Z,36.90
2023-05-22T12:05:26.767Z,37.90
2023-05-22T12:07:54.146Z,38.90
2023-05-22T12:10:21.242Z,39.70
2023-05-22T12:12:48.357Z,40.40
2023-05-22T12:15:22.893Z,41.20
2023-05-22T12:17:49.961Z,41.80
2023-05-22T12:20:16.976Z,42.10
2023-05-22T12:22:44.618Z,42.50
2023-05-22T12:25:18.438Z,42.90
2023-05-22T12:27:46.093Z,43.50
2023-05-22T12:30:14.490Z,43.50
2023-05-22T12:32:46.984Z,43.10
2023-05-22T12:35:17.880Z,42.50
2023-05-22T12:37:49.595Z,42.20
2023-05-22T12:40:16.810Z,42.10
2023-05-22T12:42:45.120Z,42.20
2023-05-22T12:45:13.320Z,42.40
2023-05-22T12:47:40.484Z,42.70
2023-05-22T12:50:08.255Z,42.80
2023-05-22T12:52:36.044Z,42.80
2023-05-22T12:55:03.236Z,42.50
2023-05-22T12:57:30.475Z,42.10
2023-05-22T12:59:57.637Z,41.30
2023-05-22T13:02:24.976Z,40.50
2023-05-22T13:04:52.085Z,40.40
2023-05-22T13:07:19.076Z,39.90
2023-05-22T13:09:46.045Z,39.70
2023-05-22T13:12:13.168Z,39.00
2023-05-22T13:14:40.530Z,37.90
2023-05-22T13:17:08.058Z,36.20
2023-05-22T13:19:35.307Z,34.10
2023-05-22T13:22:02.464Z,32.60
2023-05-22T13:24:30.446Z,30.90
2023-05-22T13:26:57.556Z,29.60
2023-05-22T13:29:24.578Z,28.70
2023-05-22T13:31:51.537Z,27.80
2023-05-22T13:34:18.800Z,26.50
2023-05-22T13:36:46.590Z,25.70
2023-05-22T13:39:13.565Z,25.10
2023-05-22T13:41:40.744Z,24.70
2023-05-22T13:44:07.744Z,24.20
2023-05-22T13:46:34.727Z,23.70
2023-05-22T13:49:01.741Z,23.70
2023-05-22T13:51:28.785Z,23.40
2023-05-22T13:53:55.764Z,23.20
2023-05-22T13:56:23.333Z,22.70
2023-05-22T13:58:50.288Z,22.20
2023-05-22T14:01:17.332Z,22.00
2023-05-22T14:03:44.775Z,22.10
2023-05-22T14:06:11.896Z,22.30
2023-05-22T14:08:38.855Z,22.20
2023-05-22T14:11:05.866Z,22.40
2023-05-22T14:13:32.880Z,22.30
2023-05-22T14:15:59.801Z,22.60
2023-05-22T14:18:26.712Z,22.50
2023-05-22T14:20:53.808Z,22.30
2023-05-22T14:23:21.095Z,22.40
2023-05-22T14:25:48.447Z,22.00
2023-05-22T14:28:16.412Z,22.10
2023-05-22T14:30:43.550Z,22.20
2023-05-22T14:33:11.351Z,22.00
2023-05-22T14:35:38.666Z,21.80
2023-05-22T14:38:06.207Z,21.60
2023-05-22T14:40:33.204Z,21.70
2023-05-22T14:43:00.248Z,22.00
2023-05-22T14:45:27.213Z,22.10
2023-05-22T14:47:55.101Z,22.20
2023-05-22T14:50:22.338Z,22.30
2023-05-22T14:52:49.935Z,22.10
2023-05-22T14:55:17.953Z,22.10
2023-05-22T14:57:45.296Z,22.00
2023-05-22T15:00:12.962Z,21.90
2023-05-22T15:02:40.472Z,22.30
2023-05-22T15:05:08.637Z,22.60
2023-05-22T15:07:44.019Z,22.80
2023-05-22T15:10:13.301Z,23.30
2023-05-22T15:12:40.650Z,23.40
2023-05-22T15:15:08.418Z,23.30
2023-05-22T15:17:35.624Z,23.10
2023-05-22T15:20:02.908Z,23.20
2023-05-22T15:22:29.840Z,23.70
2023-05-22T15:25:07.661Z,24.20
2023-05-22T15:27:35.626Z,25.20
2023-05-22T15:30:04.226Z,26.10
2023-05-22T15:32:36.321Z,26.00
2023-05-22T15:35:03.402Z,26.60
2023-05-22T15:37:32.515Z,27.10
2023-05-22T15:40:01.959Z,27.50
2023-05-22T15:42:29.178Z,27.80
2023-05-22T15:44:59.462Z,28.10
2023-05-22T15:47:26.726Z,28.50
2023-05-22T15:49:53.714Z,28.70
2023-05-22T15:52:23.377Z,29.00
2023-05-22T15:54:50.577Z,29.00
2023-05-22T15:57:17.709Z,29.40
2023-05-22T15:59:47.286Z,29.60
2023-05-22T16:02:14.507Z,29.80
2023-05-22T16:04:41.647Z,30.00
2023-05-22T16:07:08.716Z,30.30
2023-05-22T16:09:36.222Z,30.50
2023-05-22T16:12:03.964Z,30.70
2023-05-22T16:14:31.947Z,30.90
2023-05-22T16:16:59.150Z,31.00
2023-05-22T16:19:28.423Z,31.20
2023-05-22T16:21:58.996Z,31.30
2023-05-22T16:24:52.727Z,31.60
2023-05-22T16:27:35.230Z,31.60
2023-05-22T16:30:15.129Z,31.90
2023-05-22T16:32:52.715Z,32.20
2023-05-22T16:35:30.379Z,32.30
2023-05-22T16:38:06.258Z,32.20
2023-05-22T16:40:43.060Z,32.30
2023-05-22T16:43:17.835Z,32.20
2023-05-22T16:45:56.644Z,32.40
2023-05-22T16:48:29.440Z,33.20
2023-05-22T16:50:59.527Z,32.90
2023-05-22T16:53:26.429Z,33.00
2023-05-22T16:55:53.403Z,33.20
2023-05-22T16:58:21.790Z,33.40
2023-05-22T17:00:49.052Z,33.70
2023-05-22T17:03:16.483Z,34.10
2023-05-22T17:06:20.852Z,34.40
2023-05-22T17:09:13.638Z,35.00
2023-05-22T17:12:09.801Z,35.20
2023-05-22T17:14:41.423Z,35.70
2023-05-22T17:17:29.200Z,36.20
2023-05-22T17:20:03.970Z,36.60
2023-05-22T17:22:44.134Z,36.80
2023-05-22T17:25:31.635Z,37.40
2023-05-22T17:28:17.159Z,37.50
2023-05-22T17:30:46.260Z,37.70
2023-05-22T17:33:13.961Z,37.90
2023-05-22T17:35:41.174Z,38.30
2023-05-22T17:38:08.599Z,38.70
2023-05-22T17:40:44.857Z,38.90
2023-05-22T17:43:13.264Z,39.30
2023-05-22T17:45:42.022Z,39.30
2023-05-22T17:48:09.313Z,39.40
2023-05-22T17:50:38.502Z,39.50
2023-05-22T17:53:05.577Z,39.80
2023-05-22T17:55:32.741Z,39.90
2023-05-22T17:57:59.933Z,40.60
2023-05-22T18:00:26.830Z,40.40
2023-05-22T18:02:53.846Z,40.80
2023-05-22T18:05:21.249Z,41.10
2023-05-22T18:07:48.509Z,41.50
2023-05-22T18:10:15.588Z,41.70
2023-05-22T18:12:42.626Z,42.00
2023-05-22T18:15:12.024Z,42.20
2023-05-22T18:17:39.207Z,42.60
2023-05-22T18:20:08.139Z,43.10
2023-05-22T18:22:37.380Z,43.50
2023-05-22T18:25:05.562Z,43.60
2023-05-22T18:27:33.457Z,43.90
2023-05-22T18:30:00.659Z,44.20
2023-05-22T18:32:27.830Z,44.40
2023-05-22T18:34:58.701Z,44.70
2023-05-22T18:37:26.624Z,44.90
2023-05-22T18:39:53.608Z,45.20
2023-05-22T18:42:20.682Z,45.40
2023-05-22T18:44:48.970Z,45.80
2023-05-22T18:47:16.507Z,46.10
2023-05-22T18:49:43.641Z,46.30
2023-05-22T18:52:10.598Z,46.20
2023-05-22T18:54:37.572Z,45.90
2023-05-22T18:57:04.799Z,45.60
2023-05-22T18:59:31.753Z,45.60
2023-05-22T19:01:58.706Z,45.80
2023-05-22T19:04:25.888Z,45.80
2023-05-22T19:06:53.873Z,46.00
2023-05-22T19:09:20.850Z,46.00
2023-05-22T19:11:48.055Z,46.20
2023-05-22T19:14:15.019Z,46.40
2023-05-22T19:16:43.877Z,46.40
2023-05-22T19:19:11.719Z,46.70
2023-05-22T19:21:39.410Z,46.80
2023-05-22T19:24:07.139Z,47.00
2023-05-22T19:26:34.167Z,47.10
2023-05-22T19:29:01.125Z,47.20
2023-05-22T19:31:31.411Z,47.50
2023-05-22T19:33:58.655Z,47.80
2023-05-22T19:36:25.757Z,48.00
2023-05-22T19:38:53.627Z,48.00
2023-05-22T19:41:21.741Z,47.80
2023-05-22T19:43:48.954Z,47.80
2023-05-22T19:46:15.896Z,48.00
2023-05-22T19:48:42.939Z,47.90
2023-05-22T19:51:09.975Z,48.00
2023-05-22T19:53:36.924Z,48.10
2023-05-22T19:56:04.048Z,48.30
2023-05-22T19:58:31.064Z,48.30
2023-05-22T20:00:58.104Z,48.50
2023-05-22T20:03:26.412Z,48.60
2023-05-22T20:05:53.901Z,48.70
2023-05-22T20:08:25.695Z,48.80
2023-05-22T20:10:52.982Z,49.10
2023-05-22T20:13:20.234Z,49.40
2023-05-22T20:15:47.828Z,49.50
2023-05-22T20:18:15.090Z,49.70
2023-05-22T20:20:42.090Z,50.10
2023-05-22T20:23:09.140Z,50.40
2023-05-22T20:25:36.285Z,51.30
2023-05-22T20:28:04.739Z,51.10
2023-05-22T20:30:31.813Z,51.20
2023-05-22T20:32:58.992Z,51.40
2023-05-22T20:35:26.463Z,51.60
2023-05-22T20:37:53.457Z,51.90
2023-05-22T20:40:20.550Z,52.30
2023-05-22T20:42:47.680Z,52.50
2023-05-22T20:45:15.589Z,52.90
2023-05-22T20:47:43.490Z,53.10
2023-05-22T20:50:11.373Z,53.30
2023-05-22T20:52:38.351Z,53.50
2023-05-22T20:55:06.734Z,53.60
2023-05-22T20:57:34.530Z,53.90
2023-05-22T21:00:01.622Z,54.40
2023-05-22T21:02:28.612Z,54.70
2023-05-22T21:04:55.676Z,55.00
2023-05-22T21:07:22.650Z,55.30
2023-05-22T21:09:49.601Z,55.40
2023-05-22T21:12:16.671Z,55.50
2023-05-22T21:14:44.170Z,55.50
2023-05-22T21:17:11.228Z,55.60
2023-05-22T21:19:38.350Z,55.60
2023-05-22T21:22:05.461Z,55.70
2023-05-22T21:24:35.024Z,55.90
2023-05-22T21:27:01.988Z,56.10
2023-05-22T21:29:28.906Z,56.30
2023-05-22T21:31:56.152Z,56.50
2023-05-22T21:34:23.199Z,56.70
2023-05-22T21:36:50.857Z,56.80
2023-05-22T21:39:17.763Z,57.00
2023-05-22T21:41:44.743Z,57.20
2023-05-22T21:44:11.691Z,57.50
2023-05-22T21:46:38.685Z,57.70
2023-05-22T21:49:06.250Z,57.70
2023-05-22T21:51:33.726Z,57.70
2023-05-22T21:54:00.830Z,57.70
2023-05-22T21:56:27.774Z,57.70
2023-05-22T21:58:54.702Z,57.90
2023-05-22T22:01:21.882Z,58.00
2023-05-22T22:03:49.016Z,58.10
2023-05-22T22:06:16.056Z,58.40
2023-05-22T22:08:43.255Z,58.70
2023-05-22T22:11:10.145Z,58.70
2023-05-22T22:13:37.345Z,58.80
2023-05-22T22:16:04.507Z,58.90
2023-05-22T22:18:33.375Z,59.10
2023-05-22T22:21:02.365Z,59.20
2023-05-22T22:23:29.748Z,59.20
2023-05-22T22:25:56.704Z,59.30
2023-05-22T22:28:23.824Z,59.40
2023-05-22T22:30:50.846Z,59.60
2023-05-22T22:33:20.973Z,59.60
2023-05-22T22:35:48.746Z,59.70
2023-05-22T22:38:16.010Z,59.70
2023-05-22T22:40:43.246Z,59.90
2023-05-22T22:43:10.581Z,60.10
2023-05-22T22:45:39.893Z,60.30
2023-05-22T22:48:07.694Z,60.50
2023-05-22T22:50:34.842Z,60.50
2023-05-22T22:53:05.715Z,60.90
2023-05-22T22:55:32.745Z,61.00
2023-05-22T22:57:59.821Z,61.20
2023-05-22T23:00:26.874Z,62.20
2023-05-22T23:02:53.894Z,61.50
2023-05-22T23:05:21.110Z,61.80
2023-05-22T23:07:48.463Z,62.00
2023-05-22T23:10:18.634Z,62.00
2023-05-22T23:12:50.645Z,62.30
2023-05-22T23:15:17.732Z,62.40
2023-05-22T23:17:44.951Z,62.70
2023-05-22T23:20:12.083Z,62.70
2023-05-22T23:22:39.055Z,62.80
2023-05-22T23:25:06.738Z,63.00
2023-05-22T23:27:33.885Z,63.20
2023-05-22T23:30:01.142Z,63.20
2023-05-22T23:32:28.758Z,63.50
2023-05-22T23:34:56.144Z,63.60
2023-05-22T23:37:23.204Z,63.80
2023-05-22T23:39:50.448Z,63.90
2023-05-22T23:42:17.406Z,64.00
2023-05-22T23:44:44.303Z,63.90
2023-05-22T23:47:12.521Z,63.70
2023-05-22T23:49:39.527Z,63.80
2023-05-22T23:52:08.042Z,63.60
2023-05-22T23:54:35.573Z,63.70
2023-05-22T23:57:02.548Z,63.60
2023-05-22T23:59:29.478Z,63.40
